Maxfield, Maine
Current Conditions -  °F | °C
As of 6:53 AM on Saturday 25 Oct 2014 (Local Time) from KBGR Reporting Station
Overcast Overcast  
Wind Chill: 39°   Ceiling: 5000
Heat Index: 43°   Visibility: 10mi
Dew Point: 39°   Wind: 6mph
Humidity: 86%   Direction: 270°W
Pressure: 29.66"   Gusts: NA
Location:  45.1871°N, 68.8153°W
Report Text: KBGR 251053Z 27005KT 10SM FEW031 BKN050 OVC080 06/04 A2966 RMK AO2 SLP046 T00610039
Loading
Personal Weather Stations






























Interactive Weather Map
Tropical Storm Tracking
New forecast layout! Learn more

10-Day Weather Forecast

Advertisements
Track Severe Weather on mobile